Terminal Aerodrome Forecast
Issued by NWS Wilmington, OH

Home | Current Version | Previous Version | Text Only | Print | Product List | Glossary On
Versions: 1 2 3 4 5 6 7 8 9 10 11 12 13 14 15 16 17 18 19 20 21
000
FTUS41 KILN 121100
TAFCVG
TAF
KCVG 121140Z 1212/1318 17005KT P6SM BKN120
     FM121500 22008KT P6SM SCT050 BKN120
     FM122100 24008KT P6SM VCSH BKN060
     FM130100 19006KT P6SM BKN100
     FM131100 20012KT P6SM BKN080
     FM131700 23012G20KT P6SM VCSH BKN040=

USA.gov is the U.S. government's official web portal to all federal, state and local government web resources and services.